Taylor Fork

This weather station provides wind speed, gust or max wind speed, and wind direction at 9460 ft. near Pika Point above Sunlight Basin.  

This data can be used with temperature and precipitation data from the Carrot Basin SNOTEL site. If the data below is not displayed or up to date, view data here.

Elevation
9460ft
Jump to table bottom
Date Time Temperature
deg F
RH, % Wind Speed Wind Gust Wind Direction
01/29/23 14:00 -14.7 84 5 14 N - 17
01/29/23 13:00 -16.4 83 7 19 N - 11
01/29/23 12:00 -18.7 83 4 13 NE - 24
01/29/23 11:00 -19.1 83 4 11 NE - 25
01/29/23 10:00 -18.8 83 3 12 NE - 29
01/29/23 09:00 -20.9 83 4 12 NE - 42
01/29/23 08:00 -24.9 82 3 10 NE - 37
01/29/23 07:00 -25.3 82 3 11 NE - 35
01/29/23 06:00 -24.5 82 5 10 E - 74
01/29/23 05:00 -20.4 83 3 10 NE - 67
01/29/23 04:00 -17.3 84 3 8 NE - 62
01/29/23 03:00 -18.0 84 3 7 NE - 59
01/29/23 02:00 -19.1 84 5 9 E - 81
01/29/23 01:00 -18.8 84 3 7 E - 69
01/29/23 00:00 -18.9 84 3 7 E - 73
01/28/23 23:00 -18.3 84 3 8 NE - 52
01/28/23 22:00 -17.3 84 3 7 NE - 53
01/28/23 21:00 -15.8 85 3 11 NE - 62
01/28/23 20:00 -14.8 85 3 7 NE - 62
01/28/23 19:00 -11.8 86 3 9 NE - 49
01/28/23 18:00 -10.3 87 3 7 NE - 46
01/28/23 17:00 -8.5 87 3 8 NE - 48
01/28/23 16:00 -5.0 88 3 8 NE - 49
01/28/23 15:00 -3.1 89 3 7 NE - 51
01/28/23 14:00 -0.1 89 3 7 NE - 52
01/28/23 13:00 0.9 89 3 8 NE - 38
01/28/23 12:00 -1.7 89 2 7 NE - 38
01/28/23 11:00 -1.3 89 3 10 NE - 44
01/28/23 10:00 -2.1 89 3 8 NE - 44
01/28/23 09:00 -2.1 90 5 14 NE - 28
01/28/23 08:00 0.1 91 4 12 NE - 37
01/28/23 07:00 2.8 91 3 10 NE - 31
01/28/23 06:00 6.1 93 4 10 E - 83
01/28/23 05:00 8.3 93 7 14 NW - 326
01/28/23 04:00 9.7 94 10 16 NW - 296
01/28/23 03:00 10.8 94 13 22 W - 285
01/28/23 02:00 10.9 94 9 16 W - 258
01/28/23 01:00 10.8 94 6 11 W - 274
01/28/23 00:00 11.7 95 5 13 NW - 298
01/27/23 23:00 12.1 95 2 6 NW - 327
01/27/23 22:00 12.5 95 6 10 N - 357
01/27/23 21:00 13.0 95 5 10 N - 4
01/27/23 20:00 13.7 95 7 15 N - 0
01/27/23 19:00 14.6 95 9 16 N - 347
01/27/23 18:00 15.2 96 6 10 N - 347
01/27/23 17:00 15.4 96 7 10 N - 338
01/27/23 16:00 16.3 96 10 21 NW - 337
01/27/23 15:00 16.5 96 13 24 N - 345
01/27/23 14:00 17.2 96 7 17 N - 351
01/27/23 13:00 16.9 95 10 20 NW - 319